Opelika, AL

5:24 AM CDT on September 30, 2016 (GMT -0500)
Opelika, AL - Highland Ave. | | Change Station

Elev 856 ft 32.67 °N, 85.37 °W | Updated 13 seconds ago

Clear
Clear
52.3 °F
Feels Like 52.3 °F
N
0.0
Wind Variable Wind from SW
Gusts 0.0 mph

Today
High -- | Low -- °F
--% Chance of Precip.
Yesterday
High -- | Low -- °F
Precip. -- in
Pressure 30.10 in
Visibility 10.0 miles
Clouds Clear
Dew Point 40 °F
Humidity 62%
Rainfall 0.00 in
Snow Depth Not available.
6:35 AM 6:26 PM
Waning Crescent, 0% visible
METAR KAUO 300956Z AUTO 35006KT 10SM CLR 12/09 A3005 RMK AO2 SLP193 T01220089
Pressure 30.10 in
Visibility 10.0 miles
Clouds Clear
Dew Point 40 °F
Humidity 62%
Rainfall 0.00 in
Snow Depth Not available.
6:35 AM 6:26 PM
Waning Crescent, 0% visible
METAR KAUO 300956Z AUTO 35006KT 10SM CLR 12/09 A3005 RMK AO2 SLP193 T01220089

10-Day Weather Forecast

Almanac

Astronomy

Sep. 30, 2016 Rise Set
Actual Time
Civil Twilight
Nautical Twilight
Astronomical Twilight
Moon
Length of Visible Light
Length of Day
Tomorrow will be .
, % of the Moon is Illuminated

Today's Extremes

State Highs State Lows

Community

WunderPhotos

Upload Photos

1,942,687 photos uploaded!

WunderBlog® & News

Nearby

Air Quality

  Air Quality AQ Index Pollutant
Not available.

Snow Depth

Station Depth Elevation

Earthquake Activity

City Distance Mag. Time & Date
Minimum magnitude displayed is 2.5.

Coastal Water Temperatures

Place Temperature

Stations

Nearby Weather Stations

Station Location Temp. Windchill Dew Point Humidity Wind Precip. Elev Updated Type
                   

Watches & Warnings

There are currently no watches in effect.